Time;durP1;ratioP1;P1;durP2;ratioP2;P2;SDS_P1;SDS_P2;PMS_P1;PMS_P2;Temp;Humidity;BMP_temperature;BMP_pressure;BME280_temperature;BME280_humidity;BME280_pressure;Samples;Min_cycle;Max_cycle;Signal;HPM_P1;HPM_P2
2021/04/23 00:00:54;;;;;;;9.68;4.13;;;6.00;1.00;;;;;;5107647;28;20048;-75
2021/04/23 00:03:27;;;;;;;12.25;4.22;;;6.00;1.00;;;;;;5102779;28;20530;-75
2021/04/23 00:05:58;;;;;;;11.02;4.00;;;5.90;1.00;;;;;;5107821;28;20044;-75
2021/04/23 00:08:25;;;;;;;8.23;3.97;;;6.00;1.00;;;;;;5111817;28;20761;-75
2021/04/23 00:10:54;;;;;;;7.05;4.10;;;6.00;1.00;;;;;;5111893;28;20050;-75
2021/04/23 00:13:21;;;;;;;10.13;4.28;;;5.80;1.00;;;;;;5107373;28;20069;-76
2021/04/23 00:15:49;;;;;;;9.82;4.25;;;5.80;1.00;;;;;;5109771;28;20044;-75
2021/04/23 00:18:16;;;;;;;11.23;4.45;;;5.70;1.00;;;;;;5109693;28;20050;-76
2021/04/23 00:20:44;;;;;;;8.98;4.20;;;5.70;1.00;;;;;;5109556;28;20820;-76
2021/04/23 00:23:13;;;;;;;13.70;5.03;;;5.60;1.00;;;;;;5107187;28;20455;-75
2021/04/23 00:25:40;;;;;;;8.75;4.45;;;5.60;1.00;;;;;;5110654;28;20443;-76
2021/04/23 00:28:09;;;;;;;9.90;4.20;;;5.60;1.00;;;;;;5112360;28;20049;-76
2021/04/23 00:30:38;;;;;;;12.35;4.70;;;5.50;1.00;;;;;;5110869;28;20044;-75
2021/04/23 00:33:06;;;;;;;9.00;4.40;;;5.50;1.00;;;;;;5109366;28;20404;-75
2021/04/23 00:35:35;;;;;;;9.05;4.50;;;5.40;1.00;;;;;;5108623;28;20059;-75
2021/04/23 00:38:07;;;;;;;12.63;4.40;;;5.30;1.00;;;;;;5111270;28;20060;-75
2021/04/23 00:40:37;;;;;;;11.68;4.10;;;5.40;1.00;;;;;;5110273;28;20047;-76
2021/04/23 00:43:06;;;;;;;9.55;4.30;;;5.50;1.00;;;;;;5104490;28;20071;-76
2021/04/23 00:45:33;;;;;;;9.68;4.20;;;5.40;1.00;;;;;;5110306;28;21264;-75
2021/04/23 00:48:04;;;;;;;11.82;4.75;;;5.40;1.00;;;;;;5112450;28;20051;-76
2021/04/23 00:50:36;;;;;;;11.32;4.40;;;5.30;1.00;;;;;;5112309;28;20513;-76
2021/04/23 00:53:04;;;;;;;10.00;4.68;;;5.30;1.00;;;;;;5107568;28;20416;-74
2021/04/23 00:55:31;;;;;;;8.15;4.20;;;5.30;1.00;;;;;;5109117;28;20063;-76
2021/04/23 00:58:00;;;;;;;14.45;4.57;;;5.20;1.00;;;;;;5105983;28;20076;-76
2021/04/23 01:00:28;;;;;;;10.80;4.70;;;5.20;1.00;;;;;;5112343;28;20073;-76
2021/04/23 01:02:54;;;;;;;8.98;4.50;;;5.20;1.00;;;;;;5108693;28;20126;-75
2021/04/23 01:05:28;;;;;;;13.95;4.78;;;5.10;1.00;;;;;;5109630;28;20051;-76
2021/04/23 01:07:55;;;;;;;10.25;4.75;;;5.10;1.00;;;;;;5107772;28;20054;-75
2021/04/23 01:10:22;;;;;;;9.75;3.92;;;5.00;1.00;;;;;;5112079;28;20571;-75
2021/04/23 01:12:50;;;;;;;11.32;4.50;;;5.00;1.00;;;;;;5103277;28;20050;-75
2021/04/23 01:15:18;;;;;;;8.38;4.88;;;4.90;1.00;;;;;;5104172;28;20397;-76
2021/04/23 01:17:45;;;;;;;11.98;4.90;;;4.90;1.00;;;;;;5108526;28;20049;-75
2021/04/23 01:20:16;;;;;;;8.93;4.60;;;5.00;1.00;;;;;;5111730;28;20086;-76
2021/04/23 01:22:44;;;;;;;11.50;4.97;;;5.00;1.00;;;;;;5106348;28;20545;-74
2021/04/23 01:25:12;;;;;;;15.40;5.80;;;4.90;1.00;;;;;;5108305;28;20086;-75
2021/04/23 01:27:40;;;;;;;16.92;5.00;;;4.80;1.00;;;;;;5110222;28;20564;-75
2021/04/23 01:30:10;;;;;;;9.07;4.47;;;4.70;1.00;;;;;;5110810;28;20047;-74
2021/04/23 01:32:38;;;;;;;10.98;4.93;;;4.70;1.00;;;;;;5106771;28;20065;-75
2021/04/23 01:35:06;;;;;;;13.02;5.05;;;4.80;1.00;;;;;;5109886;28;20052;-74
2021/04/23 01:37:33;;;;;;;12.10;5.35;;;4.80;1.00;;;;;;5108904;28;20055;-74
2021/04/23 01:40:01;;;;;;;13.48;4.80;;;4.80;1.00;;;;;;5110330;28;20056;-74
2021/04/23 01:42:28;;;;;;;12.80;4.97;;;4.70;1.00;;;;;;5106107;28;20043;-75
2021/04/23 01:44:57;;;;;;;11.45;5.40;;;4.60;1.00;;;;;;5109109;28;20054;-75
2021/04/23 01:47:25;;;;;;;9.75;4.70;;;4.70;1.00;;;;;;5111164;28;20055;-74
2021/04/23 01:49:53;;;;;;;10.90;4.90;;;4.70;1.00;;;;;;5107289;28;20070;-74
2021/04/23 01:52:20;;;;;;;13.70;5.25;;;4.80;1.00;;;;;;5106492;28;20417;-74
2021/04/23 01:54:48;;;;;;;13.27;5.13;;;4.70;1.00;;;;;;5105670;27;20039;-74
2021/04/23 01:57:15;;;;;;;12.50;4.88;;;4.70;1.00;;;;;;5106977;28;20048;-74
2021/04/23 01:59:47;;;;;;;11.32;5.10;;;4.60;1.00;;;;;;5106629;28;20050;-74
2021/04/23 02:02:15;;;;;;;13.07;5.30;;;4.60;1.00;;;;;;5106859;28;20067;-75
2021/04/23 02:04:46;;;;;;;15.82;5.53;;;4.60;1.00;;;;;;5107696;28;20043;-75
2021/04/23 02:07:15;;;;;;;9.85;5.05;;;4.50;1.00;;;;;;5106352;28;20063;-74
2021/04/23 02:09:42;;;;;;;11.07;4.75;;;4.50;1.00;;;;;;5106701;28;20051;-74
2021/04/23 02:12:11;;;;;;;12.00;5.25;;;4.40;1.00;;;;;;5101456;28;20058;-75
2021/04/23 02:14:39;;;;;;;9.73;4.28;;;4.30;1.00;;;;;;5100892;28;20137;-74
2021/04/23 02:17:08;;;;;;;13.60;5.40;;;4.30;1.00;;;;;;5108931;28;20056;-75
2021/04/23 02:19:36;;;;;;;10.50;4.97;;;4.30;1.00;;;;;;5106595;28;20100;-75
2021/04/23 02:22:03;;;;;;;10.77;4.88;;;4.30;1.00;;;;;;5103781;28;20052;-75
2021/04/23 02:24:30;;;;;;;12.75;5.40;;;4.30;1.00;;;;;;5102808;28;20409;-74
2021/04/23 02:26:57;;;;;;;12.32;5.40;;;4.30;1.00;;;;;;5107563;28;20055;-74
2021/04/23 02:29:25;;;;;;;15.65;5.32;;;4.20;1.00;;;;;;5106243;28;20052;-74
2021/04/23 02:31:55;;;;;;;13.77;5.43;;;4.20;1.00;;;;;;5104610;28;20051;-74
2021/04/23 02:34:25;;;;;;;10.52;5.40;;;4.10;1.00;;;;;;5106017;28;20565;-74
2021/04/23 02:36:53;;;;;;;11.07;5.07;;;4.10;1.00;;;;;;5107371;28;20043;-74
2021/04/23 02:39:21;;;;;;;11.63;5.10;;;4.10;1.00;;;;;;5108116;28;20052;-74
2021/04/23 02:41:51;;;;;;;10.55;4.95;;;4.10;1.00;;;;;;5102690;28;20048;-74
2021/04/23 02:44:18;;;;;;;11.90;4.95;;;4.20;1.00;;;;;;5101479;28;20058;-74
2021/04/23 02:46:46;;;;;;;11.75;5.40;;;4.10;1.00;;;;;;5109530;28;20044;-74
2021/04/23 02:49:15;;;;;;;13.45;5.03;;;4.10;1.00;;;;;;5107131;28;20047;-74
2021/04/23 02:51:46;;;;;;;10.52;5.35;;;4.10;1.00;;;;;;5100874;28;20055;-74
2021/04/23 02:54:13;;;;;;;16.90;5.32;;;4.00;1.00;;;;;;5105735;28;20054;-75
2021/04/23 02:56:41;;;;;;;15.43;6.10;;;3.90;1.00;;;;;;5108978;28;20130;-74
2021/04/23 02:59:09;;;;;;;11.95;5.80;;;3.90;1.00;;;;;;5109832;28;20048;-75
2021/04/23 03:01:40;;;;;;;13.43;4.55;;;3.90;1.00;;;;;;5104705;28;20501;-76
2021/04/23 03:04:08;;;;;;;13.93;5.63;;;3.80;1.00;;;;;;5107648;28;20047;-74
2021/04/23 03:06:36;;;;;;;10.65;5.13;;;4.00;1.00;;;;;;5109281;28;20070;-74
2021/04/23 03:09:05;;;;;;;14.18;5.63;;;4.00;1.00;;;;;;5102449;28;20066;-75
2021/04/23 03:11:32;;;;;;;13.38;5.63;;;4.00;1.00;;;;;;5104936;28;20063;-74
2021/04/23 03:14:01;;;;;;;13.48;5.85;;;3.80;1.00;;;;;;5107179;28;20046;-75
2021/04/23 03:16:29;;;;;;;9.45;5.30;;;3.80;1.00;;;;;;5108505;28;20526;-75
2021/04/23 03:18:57;;;;;;;9.68;4.95;;;3.80;1.00;;;;;;5109047;28;20413;-74
2021/04/23 03:21:26;;;;;;;13.70;5.13;;;3.80;1.00;;;;;;5105793;28;20051;-74
2021/04/23 03:23:55;;;;;;;12.20;5.47;;;3.90;1.00;;;;;;5102096;28;20098;-75
2021/04/23 03:26:24;;;;;;;12.15;5.35;;;3.80;1.00;;;;;;5105901;28;20056;-74
2021/04/23 03:28:51;;;;;;;8.43;4.53;;;3.70;1.00;;;;;;5104090;28;20048;-75
2021/04/23 03:31:19;;;;;;;12.80;5.05;;;3.70;1.00;;;;;;5103165;28;20098;-75
2021/04/23 03:33:46;;;;;;;12.50;5.10;;;3.60;1.00;;;;;;5105670;28;20047;-75
2021/04/23 03:36:14;;;;;;;8.95;5.13;;;3.60;1.00;;;;;;5107770;28;20061;-75
2021/04/23 03:38:42;;;;;;;11.65;5.43;;;3.70;1.00;;;;;;5104722;28;20040;-75
2021/04/23 03:41:14;;;;;;;16.42;5.50;;;3.60;1.00;;;;;;5108233;28;20143;-74
2021/04/23 03:43:42;;;;;;;13.23;5.68;;;3.60;1.00;;;;;;5109083;28;20047;-74
2021/04/23 03:46:10;;;;;;;14.15;5.85;;;3.50;1.00;;;;;;5112511;28;20108;-73
2021/04/23 03:48:38;;;;;;;13.75;5.82;;;3.60;1.00;;;;;;5110956;28;20051;-74
2021/04/23 03:51:06;;;;;;;16.88;6.07;;;3.50;1.00;;;;;;5110511;28;20580;-74
2021/04/23 03:53:34;;;;;;;12.80;5.72;;;3.50;1.00;;;;;;5107727;28;20047;-75
2021/04/23 03:56:01;;;;;;;14.35;5.68;;;3.50;1.00;;;;;;5109996;28;20047;-72
2021/04/23 03:58:29;;;;;;;11.70;6.18;;;3.40;1.00;;;;;;5112494;28;20044;-76
2021/04/23 04:00:58;;;;;;;14.80;5.78;;;3.30;1.00;;;;;;5113201;28;20059;-73
2021/04/23 04:03:26;;;;;;;11.75;5.43;;;3.40;1.00;;;;;;5106636;28;20043;-73
2021/04/23 04:05:54;;;;;;;13.13;5.70;;;3.40;1.00;;;;;;5112627;28;20046;-75
2021/04/23 04:08:21;;;;;;;15.82;6.18;;;3.30;1.00;;;;;;5108948;28;20497;-74
2021/04/23 04:10:48;;;;;;;13.85;5.78;;;3.30;1.00;;;;;;5113183;28;20043;-73
2021/04/23 04:13:16;;;;;;;14.23;6.15;;;3.40;1.00;;;;;;5107735;28;20075;-73
2021/04/23 04:15:44;;;;;;;13.55;6.40;;;3.30;1.00;;;;;;5106055;28;20044;-74
2021/04/23 04:18:12;;;;;;;12.68;6.53;;;3.30;1.00;;;;;;5113105;28;20055;-73
2021/04/23 04:20:43;;;;;;;15.70;5.82;;;3.30;1.00;;;;;;5111927;28;20155;-74
2021/04/23 04:23:14;;;;;;;12.65;6.22;;;3.30;1.00;;;;;;5108504;28;20047;-75
2021/04/23 04:25:42;;;;;;;14.60;6.43;;;3.30;1.00;;;;;;5113147;28;20051;-74
2021/04/23 04:28:10;;;;;;;17.05;6.55;;;3.30;1.00;;;;;;5111741;28;20501;-74
2021/04/23 04:30:37;;;;;;;15.30;6.15;;;3.40;1.00;;;;;;5113661;28;20050;-74
2021/04/23 04:33:07;;;;;;;14.70;6.00;;;3.40;1.00;;;;;;5109535;28;20439;-74
2021/04/23 04:35:34;;;;;;;15.48;6.10;;;3.40;1.00;;;;;;5111442;28;20048;-75
2021/04/23 04:38:02;;;;;;;14.05;6.15;;;3.70;1.00;;;;;;5106245;28;20488;-74
2021/04/23 04:40:30;;;;;;;15.32;7.10;;;4.30;1.00;;;;;;5113577;28;20425;-74
2021/04/23 04:42:57;;;;;;;20.75;8.73;;;4.50;1.00;;;;;;5109352;28;20732;-74
2021/04/23 04:45:26;;;;;;;17.35;7.47;;;4.90;1.00;;;;;;5111406;28;20126;-74
2021/04/23 04:47:54;;;;;;;22.08;8.48;;;5.30;1.00;;;;;;5107986;28;20061;-74
2021/04/23 04:50:27;;;;;;;20.45;6.75;;;5.80;1.00;;;;;;5113220;28;20064;-74
2021/04/23 04:52:55;;;;;;;13.55;7.00;;;6.20;1.00;;;;;;5107248;28;20505;-74
2021/04/23 04:55:25;;;;;;;10.23;5.85;;;6.50;1.00;;;;;;5109968;28;20486;-73
2021/04/23 04:57:52;;;;;;;11.32;5.35;;;6.80;1.00;;;;;;5106574;28;20046;-74
2021/04/23 05:00:20;;;;;;;14.10;6.28;;;6.90;1.00;;;;;;5110171;28;20051;-74
2021/04/23 05:02:47;;;;;;;12.48;5.68;;;7.20;1.00;;;;;;5107526;28;20047;-74
2021/04/23 05:05:15;;;;;;;15.13;6.00;;;7.80;1.00;;;;;;5108674;28;20051;-74
2021/04/23 05:07:43;;;;;;;17.08;7.05;;;7.90;1.00;;;;;;5109994;27;20595;-74
2021/04/23 05:10:12;;;;;;;17.95;6.82;;;8.30;1.00;;;;;;5110425;28;20048;-74
2021/04/23 05:12:38;;;;;;;17.92;6.40;;;8.70;1.00;;;;;;5107287;28;20062;-74
2021/04/23 05:15:08;;;;;;;14.52;5.10;;;9.00;1.00;;;;;;5110204;28;20050;-74
2021/04/23 05:17:35;;;;;;;18.88;6.07;;;8.40;1.00;;;;;;5109497;28;20048;-74
2021/04/23 05:20:04;;;;;;;13.38;6.03;;;8.60;1.00;;;;;;5110489;28;20051;-73
2021/04/23 05:22:32;;;;;;;21.23;7.00;;;9.60;1.00;;;;;;5101410;28;20039;-75
2021/04/23 05:25:00;;;;;;;15.30;6.05;;;9.30;1.00;;;;;;5109652;28;20050;-74
2021/04/23 05:27:27;;;;;;;12.30;5.85;;;9.70;1.00;;;;;;5109722;28;20066;-73
2021/04/23 05:29:54;;;;;;;13.60;6.38;;;9.90;1.00;;;;;;5110462;28;20164;-74
2021/04/23 05:32:21;;;;;;;17.85;5.93;;;10.20;1.00;;;;;;5106816;28;20098;-74
2021/04/23 05:34:49;;;;;;;15.23;6.55;;;9.90;1.00;;;;;;5106834;28;20070;-74
2021/04/23 05:37:16;;;;;;;20.70;6.32;;;9.80;1.00;;;;;;5108858;28;20050;-75
2021/04/23 05:39:44;;;;;;;15.77;6.22;;;10.00;1.00;;;;;;5107118;28;20044;-73
2021/04/23 05:42:12;;;;;;;10.55;5.50;;;8.60;1.00;;;;;;5106613;28;20509;-74
2021/04/23 05:44:39;;;;;;;12.20;5.88;;;7.10;1.00;;;;;;5105690;28;20090;-74
2021/04/23 05:47:07;;;;;;;9.73;5.07;;;6.70;1.00;;;;;;5107983;28;20051;-74
2021/04/23 05:49:34;;;;;;;13.38;5.88;;;6.50;1.00;;;;;;5105469;28;20044;-73
2021/04/23 05:52:02;;;;;;;12.23;5.32;;;6.00;1.00;;;;;;5105459;28;20513;-74
2021/04/23 05:54:29;;;;;;;9.98;5.65;;;6.20;1.00;;;;;;5105858;28;20044;-74
2021/04/23 05:56:56;;;;;;;12.65;6.15;;;6.40;1.00;;;;;;5108447;28;20517;-74
2021/04/23 05:59:24;;;;;;;16.58;6.55;;;6.50;1.00;;;;;;5110004;28;20048;-75
2021/04/23 06:01:51;;;;;;;15.02;6.80;;;6.50;1.00;;;;;;5105135;28;20058;-75
2021/04/23 06:04:18;;;;;;;13.80;5.47;;;6.70;1.00;;;;;;5103413;28;20044;-74
2021/04/23 06:06:45;;;;;;;12.77;5.90;;;6.50;1.00;;;;;;5109289;28;20051;-74
2021/04/23 06:09:12;;;;;;;9.50;5.63;;;6.90;1.00;;;;;;5109327;28;20039;-75
2021/04/23 06:11:40;;;;;;;14.57;5.55;;;6.70;1.00;;;;;;5105463;28;20051;-74
2021/04/23 06:14:07;;;;;;;11.98;5.68;;;7.20;1.00;;;;;;5108330;28;20056;-75
2021/04/23 06:16:35;;;;;;;14.65;7.00;;;7.40;1.00;;;;;;5108423;28;20051;-75
2021/04/23 06:19:03;;;;;;;18.90;5.65;;;7.00;1.00;;;;;;5107189;28;20050;-75
2021/04/23 06:21:31;;;;;;;8.90;5.38;;;7.10;1.00;;;;;;5104560;28;22149;-74
2021/04/23 06:23:58;;;;;;;12.80;6.25;;;7.00;1.00;;;;;;5107020;28;20454;-75
2021/04/23 06:26:25;;;;;;;14.90;6.00;;;7.10;1.00;;;;;;5107176;28;20056;-75
2021/04/23 06:28:51;;;;;;;9.35;4.80;;;7.30;1.00;;;;;;5109555;28;20044;-74
2021/04/23 06:31:20;;;;;;;11.32;5.00;;;7.20;1.00;;;;;;5105374;28;20581;-75
2021/04/23 06:33:51;;;;;;;10.73;4.80;;;7.40;1.00;;;;;;5106797;28;20079;-74
2021/04/23 06:36:20;;;;;;;12.85;5.50;;;7.50;1.00;;;;;;5104315;28;20055;-75
2021/04/23 06:38:47;;;;;;;15.98;6.22;;;7.50;1.00;;;;;;5107285;28;20051;-75
2021/04/23 06:41:15;;;;;;;10.90;4.82;;;7.50;1.00;;;;;;5108542;28;20062;-74
2021/04/23 06:43:43;;;;;;;13.70;5.10;;;7.40;1.00;;;;;;5110332;28;20463;-75
2021/04/23 06:46:11;;;;;;;11.48;4.90;;;7.40;1.00;;;;;;5110779;28;20657;-74
2021/04/23 06:48:41;;;;;;;9.45;4.88;;;7.70;1.00;;;;;;5106434;28;20043;-74
2021/04/23 06:51:10;;;;;;;15.48;4.80;;;7.80;1.00;;;;;;5110440;28;20516;-74
2021/04/23 06:53:38;;;;;;;11.95;4.68;;;8.00;1.00;;;;;;5107049;28;20047;-75
2021/04/23 06:56:05;;;;;;;13.27;4.97;;;8.20;1.00;;;;;;5109123;28;20061;-75
2021/04/23 06:58:32;;;;;;;13.23;5.25;;;8.40;1.00;;;;;;5110240;28;20073;-75
2021/04/23 07:00:59;;;;;;;13.45;5.00;;;8.60;1.00;;;;;;5111411;28;20054;-74
2021/04/23 07:03:25;;;;;;;9.85;4.78;;;8.60;1.00;;;;;;5104484;28;20047;-74
2021/04/23 07:05:54;;;;;;;12.45;5.25;;;8.30;1.00;;;;;;5107858;28;20056;-75
2021/04/23 07:08:33;;;;;;;16.15;6.82;;;8.30;1.00;;;;;;5108757;28;20050;-75
2021/04/23 07:10:59;;;;;;;11.05;5.03;;;8.60;1.00;;;;;;5109514;28;20047;-75
2021/04/23 07:13:27;;;;;;;13.73;5.35;;;8.90;1.00;;;;;;5104743;28;20051;-74
2021/04/23 07:15:54;;;;;;;16.88;5.90;;;9.10;1.00;;;;;;5110364;28;20054;-74
2021/04/23 07:18:21;;;;;;;12.32;5.47;;;9.60;1.00;;;;;;5110810;28;20078;-75
2021/04/23 07:20:48;;;;;;;19.35;6.03;;;9.60;1.00;;;;;;5112571;28;20416;-75
2021/04/23 07:23:15;;;;;;;14.50;4.97;;;9.40;1.00;;;;;;5106510;28;20047;-75
2021/04/23 07:25:43;;;;;;;10.57;4.88;;;9.60;1.00;;;;;;5109215;28;20039;-75
2021/04/23 07:28:10;;;;;;;18.80;5.65;;;9.60;1.00;;;;;;5110820;28;20056;-74
2021/04/23 07:30:38;;;;;;;10.60;4.90;;;8.90;1.00;;;;;;5112601;28;20583;-75
2021/04/23 07:33:09;;;;;;;12.98;4.85;;;8.80;1.00;;;;;;5103910;28;20047;-74
2021/04/23 07:35:36;;;;;;;10.13;5.20;;;9.50;1.00;;;;;;5110198;28;20039;-74
2021/04/23 07:38:04;;;;;;;20.10;5.80;;;9.90;1.00;;;;;;5110832;28;20067;-75
2021/04/23 07:40:31;;;;;;;14.80;5.25;;;9.90;1.00;;;;;;5113206;28;20112;-75
2021/04/23 07:43:00;;;;;;;14.95;4.97;;;10.20;1.00;;;;;;5105896;28;20040;-75
2021/04/23 07:45:34;;;;;;;13.05;5.00;;;10.20;1.00;;;;;;5107462;28;20044;-74
2021/04/23 07:48:00;;;;;;;15.30;5.05;;;10.50;1.00;;;;;;5107350;28;20062;-75
2021/04/23 07:50:28;;;;;;;10.85;5.03;;;10.70;1.00;;;;;;5107977;28;20048;-74
2021/04/23 07:52:58;;;;;;;13.80;5.53;;;10.80;1.00;;;;;;5099817;28;20078;-73
2021/04/23 07:55:25;;;;;;;14.20;4.97;;;10.70;1.00;;;;;;5109465;28;20731;-74
2021/04/23 07:57:53;;;;;;;8.95;5.20;;;10.80;1.00;;;;;;5108371;28;20043;-74
2021/04/23 08:00:23;;;;;;;11.65;4.90;;;10.80;1.00;;;;;;5111384;28;20044;-74
2021/04/23 08:02:52;;;;;;;20.35;5.88;;;10.50;1.00;;;;;;5105361;28;20128;-75
2021/04/23 08:05:25;;;;;;;10.75;5.75;;;10.40;1.00;;;;;;5105578;28;20047;-74
2021/04/23 08:08:01;;;;;;;12.50;4.97;;;10.50;1.00;;;;;;5110191;28;20053;-75
2021/04/23 08:10:30;;;;;;;10.95;4.80;;;10.60;1.00;;;;;;5110932;28;20051;-75
2021/04/23 08:12:57;;;;;;;13.80;5.55;;;10.80;1.00;;;;;;5106883;28;20374;-74
2021/04/23 08:15:25;;;;;;;10.35;5.00;;;10.80;1.00;;;;;;5102750;28;20144;-74
2021/04/23 08:17:53;;;;;;;13.82;5.15;;;10.60;1.00;;;;;;5106153;28;20055;-73
2021/04/23 08:20:20;;;;;;;16.08;5.95;;;10.70;1.00;;;;;;5110919;28;20463;-74
2021/04/23 08:22:48;;;;;;;12.10;5.05;;;11.20;1.00;;;;;;5105925;28;20506;-73
2021/04/23 08:25:17;;;;;;;17.70;5.20;;;11.00;1.00;;;;;;5108775;28;20074;-75
2021/04/23 08:27:44;;;;;;;12.52;5.65;;;11.10;1.00;;;;;;5111280;28;20040;-74
2021/04/23 08:30:13;;;;;;;17.73;5.97;;;11.30;1.00;;;;;;5114932;28;20047;-74
2021/04/23 08:32:42;;;;;;;18.50;5.57;;;11.10;1.00;;;;;;5111067;28;20044;-74
2021/04/23 08:35:11;;;;;;;14.75;5.88;;;11.30;1.00;;;;;;5112741;28;20043;-75
2021/04/23 08:37:38;;;;;;;14.07;5.57;;;11.40;1.00;;;;;;5111980;28;20054;-75
2021/04/23 08:40:07;;;;;;;28.00;5.88;;;11.50;1.00;;;;;;5112157;28;20382;-74
2021/04/23 08:42:34;;;;;;;13.05;5.13;;;11.60;1.00;;;;;;5106314;28;20055;-75
2021/04/23 08:45:05;;;;;;;17.38;6.18;;;11.40;1.00;;;;;;5110352;28;20501;-74
2021/04/23 08:47:32;;;;;;;15.20;5.85;;;11.30;1.00;;;;;;5110402;28;20501;-75
2021/04/23 08:50:00;;;;;;;13.48;5.63;;;11.70;1.00;;;;;;5108066;28;20047;-76
2021/04/23 08:52:28;;;;;;;18.15;5.78;;;11.80;1.00;;;;;;5108663;28;20170;-74
2021/04/23 08:54:56;;;;;;;22.77;6.28;;;11.80;1.00;;;;;;5110415;28;20470;-76
2021/04/23 08:57:24;;;;;;;12.02;6.20;;;12.10;1.00;;;;;;5113255;28;20051;-74
2021/04/23 08:59:51;;;;;;;13.25;5.43;;;12.00;1.00;;;;;;5112793;28;20047;-75
2021/04/23 09:02:20;;;;;;;13.73;5.78;;;11.90;1.00;;;;;;5108854;28;20050;-76
2021/04/23 09:04:49;;;;;;;15.25;5.85;;;11.50;1.00;;;;;;5106562;28;20044;-76
2021/04/23 09:07:19;;;;;;;14.13;5.88;;;11.90;1.00;;;;;;5111433;28;20053;-75
2021/04/23 09:09:49;;;;;;;13.07;5.80;;;11.60;1.00;;;;;;5112077;28;20123;-75
2021/04/23 09:12:19;;;;;;;13.48;5.82;;;11.60;1.00;;;;;;5105193;28;20066;-76
2021/04/23 09:14:52;;;;;;;17.17;6.25;;;11.90;1.00;;;;;;5107733;28;20044;-74
2021/04/23 09:17:22;;;;;;;16.67;5.47;;;12.10;1.00;;;;;;5113553;28;20421;-75
2021/04/23 09:19:51;;;;;;;13.63;5.47;;;11.80;1.00;;;;;;5111795;28;20130;-75
2021/04/23 09:22:25;;;;;;;10.35;6.15;;;11.90;1.00;;;;;;5106961;28;20922;-75
2021/04/23 09:25:08;;;;;;;12.37;6.23;;;11.80;1.00;;;;;;5112159;28;20101;-75
2021/04/23 09:27:38;;;;;;;16.65;6.03;;;11.80;1.00;;;;;;5106496;28;20059;-75
2021/04/23 09:30:08;;;;;;;11.70;6.13;;;11.90;1.00;;;;;;5110647;28;20128;-74
2021/04/23 09:32:39;;;;;;;13.07;6.78;;;11.50;1.00;;;;;;5108497;28;20082;-74
2021/04/23 09:35:14;;;;;;;16.13;6.72;;;11.50;1.00;;;;;;5105992;28;20063;-74
2021/04/23 09:37:44;;;;;;;13.77;6.35;;;12.20;1.00;;;;;;5109091;28;20157;-74
2021/04/23 09:40:14;;;;;;;16.52;6.18;;;12.50;1.00;;;;;;5106840;28;20052;-74
2021/04/23 09:42:45;;;;;;;16.88;7.30;;;12.60;1.00;;;;;;5104407;28;20636;-74
2021/04/23 09:45:13;;;;;;;13.60;6.18;;;12.80;1.00;;;;;;5104713;28;20043;-74
2021/04/23 09:47:40;;;;;;;14.48;7.05;;;12.50;1.00;;;;;;5108385;28;20054;-74
2021/04/23 09:50:08;;;;;;;10.75;6.15;;;12.30;1.00;;;;;;5109025;28;20051;-74
2021/04/23 09:52:47;;;;;;;13.15;6.47;;;12.20;1.00;;;;;;5104628;28;20062;-73
2021/04/23 09:55:16;;;;;;;15.50;6.30;;;12.10;1.00;;;;;;5105454;28;20047;-74
2021/04/23 09:57:51;;;;;;;17.45;6.45;;;12.50;1.00;;;;;;5107488;28;20067;-73
2021/04/23 10:00:24;;;;;;;12.10;5.32;;;12.50;1.00;;;;;;5106833;28;20122;-73
2021/04/23 10:02:54;;;;;;;16.73;6.40;;;12.50;1.00;;;;;;5106171;28;20039;-73
2021/04/23 10:05:30;;;;;;;14.73;6.47;;;12.70;1.00;;;;;;5107744;28;20123;-73
2021/04/23 10:07:58;;;;;;;12.93;6.00;;;12.50;1.00;;;;;;5108407;28;20054;-74
2021/04/23 10:10:26;;;;;;;15.98;6.30;;;12.70;1.00;;;;;;5108951;28;20600;-73
2021/04/23 10:12:54;;;;;;;14.55;7.03;;;12.40;1.00;;;;;;5104636;28;20043;-74
2021/04/23 10:15:23;;;;;;;15.65;7.13;;;12.90;1.00;;;;;;5104521;28;20088;-73
2021/04/23 10:17:51;;;;;;;15.73;7.20;;;12.90;1.00;;;;;;5109777;28;20046;-73
2021/04/23 10:20:22;;;;;;;14.50;6.72;;;12.80;1.00;;;;;;5110696;28;20047;-74
2021/04/23 10:22:50;;;;;;;17.88;6.88;;;12.80;1.00;;;;;;5104905;28;20071;-74
2021/04/23 10:25:18;;;;;;;12.82;6.50;;;13.10;1.00;;;;;;5107257;28;20047;-74
2021/04/23 10:27:47;;;;;;;15.45;6.90;;;12.70;1.00;;;;;;5110832;28;20413;-74
2021/04/23 10:30:16;;;;;;;17.38;5.70;;;13.10;1.00;;;;;;5110621;28;20046;-75
2021/04/23 10:33:05;;;;;;;10.70;5.38;;;13.20;1.00;;;;;;5106071;28;20096;-72
2021/04/23 10:35:33;;;;;;;12.35;6.15;;;13.00;1.00;;;;;;5104980;28;20043;-73
2021/04/23 10:38:03;;;;;;;12.50;5.55;;;13.30;1.00;;;;;;5104015;28;20047;-74
2021/04/23 10:40:32;;;;;;;11.90;6.43;;;13.30;1.00;;;;;;5108983;28;20050;-73
2021/04/23 10:43:00;;;;;;;10.32;5.93;;;13.20;1.00;;;;;;5104716;28;20083;-74
2021/04/23 10:45:38;;;;;;;9.77;5.68;;;13.40;1.00;;;;;;5105824;28;20431;-74
2021/04/23 10:48:25;;;;;;;15.20;6.15;;;13.40;1.00;;;;;;5110128;28;20047;-74
2021/04/23 10:50:54;;;;;;;14.00;5.50;;;13.90;1.00;;;;;;5110351;28;20056;-74
2021/04/23 10:53:32;;;;;;;13.45;5.35;;;13.80;1.00;;;;;;5104549;28;20047;-73
2021/04/23 10:56:03;;;;;;;13.65;6.35;;;14.30;1.00;;;;;;5104934;28;20398;-74
2021/04/23 10:58:39;;;;;;;10.15;5.30;;;13.70;1.00;;;;;;5108761;28;20047;-74
2021/04/23 11:01:37;;;;;;;14.90;6.30;;;13.80;1.00;;;;;;5107512;28;20047;-74
2021/04/23 11:04:13;;;;;;;14.20;6.18;;;13.80;1.00;;;;;;5024744;28;20938;-72
2021/04/23 11:06:43;;;;;;;8.13;4.70;;;14.10;1.00;;;;;;5094726;28;20135;-74
2021/04/23 11:09:16;;;;;;;12.50;5.47;;;14.40;1.00;;;;;;5109844;28;20065;-75
2021/04/23 11:12:11;;;;;;;13.55;5.43;;;14.20;1.00;;;;;;5103019;28;20116;-74
2021/04/23 11:14:38;;;;;;;12.45;5.28;;;14.00;1.00;;;;;;5103992;28;20055;-74
2021/04/23 11:17:32;;;;;;;14.20;5.50;;;14.00;1.00;;;;;;5109035;28;20169;-75
2021/04/23 11:20:00;;;;;;;10.30;4.43;;;14.80;1.00;;;;;;5110660;28;20517;-74
2021/04/23 11:22:30;;;;;;;6.72;4.10;;;14.70;1.00;;;;;;5105584;28;20063;-75
2021/04/23 11:25:02;;;;;;;10.05;4.35;;;14.60;1.00;;;;;;5106668;28;20519;-74
2021/04/23 11:27:30;;;;;;;9.10;4.72;;;13.80;1.00;;;;;;5109007;28;20056;-74
2021/04/23 11:30:09;;;;;;;9.77;5.13;;;13.90;1.00;;;;;;5109840;28;20047;-75
2021/04/23 11:32:51;;;;;;;9.70;5.38;;;13.50;1.00;;;;;;5103136;28;20054;-73
2021/04/23 11:35:20;;;;;;;10.40;5.90;;;13.70;1.00;;;;;;5107600;28;20404;-74
2021/04/23 11:37:52;;;;;;;10.70;5.35;;;14.00;1.00;;;;;;5105165;28;20051;-73
2021/04/23 11:40:22;;;;;;;16.02;6.00;;;13.90;1.00;;;;;;5108942;28;20058;-73
2021/04/23 11:42:53;;;;;;;15.35;6.40;;;14.10;1.00;;;;;;5103559;28;20485;-73
2021/04/23 11:45:21;;;;;;;11.13;5.03;;;14.40;1.00;;;;;;5106038;28;20052;-73
2021/04/23 11:47:49;;;;;;;11.85;5.10;;;14.50;1.00;;;;;;5107168;28;20054;-73
2021/04/23 11:50:19;;;;;;;10.07;4.82;;;14.40;1.00;;;;;;5109787;28;20047;-73
2021/04/23 11:52:48;;;;;;;11.02;5.43;;;14.20;1.00;;;;;;5104093;28;20051;-74
2021/04/23 11:55:18;;;;;;;10.90;5.10;;;14.80;1.00;;;;;;5104832;28;20480;-74
2021/04/23 11:57:47;;;;;;;9.05;4.78;;;14.30;1.00;;;;;;5107797;28;20054;-74
2021/04/23 12:00:16;;;;;;;15.77;5.22;;;14.50;1.00;;;;;;5107192;28;20054;-74
2021/04/23 12:02:51;;;;;;;8.90;4.68;;;15.00;1.00;;;;;;5101117;28;20104;-74
2021/04/23 12:05:25;;;;;;;8.50;4.63;;;14.90;1.00;;;;;;5110716;28;20039;-73
2021/04/23 12:07:54;;;;;;;8.82;5.10;;;14.90;1.00;;;;;;5112060;28;20054;-74
2021/04/23 12:10:24;;;;;;;16.60;5.95;;;15.00;1.00;;;;;;5108137;28;20512;-73
2021/04/23 12:12:51;;;;;;;7.47;4.50;;;14.60;1.00;;;;;;5109233;28;20051;-73
2021/04/23 12:15:25;;;;;;;11.07;5.45;;;14.60;1.00;;;;;;5109032;28;20075;-73
2021/04/23 12:17:53;;;;;;;13.98;5.00;;;14.80;1.00;;;;;;5109650;28;20047;-74
2021/04/23 12:20:23;;;;;;;9.57;5.18;;;14.70;1.00;;;;;;5110304;28;20058;-74
2021/04/23 12:22:50;;;;;;;9.95;5.20;;;14.90;1.00;;;;;;5106339;28;20051;-74
2021/04/23 12:25:28;;;;;;;12.38;5.65;;;15.10;1.00;;;;;;5108774;28;20039;-74
2021/04/23 12:27:55;;;;;;;10.20;5.40;;;15.00;1.00;;;;;;5110274;28;20056;-74
2021/04/23 12:30:32;;;;;;;11.10;5.28;;;15.50;1.00;;;;;;5113489;28;20077;-73
2021/04/23 12:32:59;;;;;;;10.55;4.78;;;15.50;1.00;;;;;;5108516;28;20066;-73
2021/04/23 12:35:39;;;;;;;12.15;5.80;;;15.90;1.00;;;;;;5111812;28;20048;-74
2021/04/23 12:38:07;;;;;;;11.20;5.15;;;16.20;1.00;;;;;;5112812;28;20063;-74
2021/04/23 12:40:36;;;;;;;8.88;5.53;;;15.90;1.00;;;;;;5107970;28;20052;-74
2021/04/23 12:43:27;;;;;;;11.48;5.40;;;16.10;1.00;;;;;;5109697;28;20108;-73
2021/04/23 12:45:57;;;;;;;10.82;4.30;;;15.50;1.00;;;;;;5089544;28;20050;-73
2021/04/23 12:48:25;;;;;;;12.60;4.97;;;15.10;1.00;;;;;;5108851;28;20051;-73
2021/04/23 12:50:53;;;;;;;9.07;4.63;;;15.50;1.00;;;;;;5108595;28;20044;-74
2021/04/23 12:53:22;;;;;;;8.98;4.60;;;15.50;1.00;;;;;;5110899;28;20059;-73
2021/04/23 12:55:49;;;;;;;11.13;5.22;;;15.30;1.00;;;;;;5110451;28;20046;-74
2021/04/23 12:58:16;;;;;;;10.00;5.20;;;15.30;1.00;;;;;;5113894;28;20055;-73
2021/04/23 13:00:43;;;;;;;12.45;4.72;;;15.70;1.00;;;;;;5110528;27;20096;-74
2021/04/23 13:03:11;;;;;;;11.88;4.55;;;15.50;1.00;;;;;;5109684;28;20113;-73
2021/04/23 13:05:42;;;;;;;12.55;5.05;;;15.70;1.00;;;;;;5110640;28;20413;-74